< Cyclone 201519 2015 Season Cyclone 201524 >
Cyclone 201521 (Quang)
General InformationTrack Information on Google MapsDetailed Wind InformationList of All Images || ResourceGoogle EarthGE AnimationAtom FeedGeoJSON
Detalied Best Track (Time Zone = UTC)
Year Month Day Hour Lat. Long. Pressure (hPa) Wind (kt) Class Image Chart
2015 4 27 00 -11.9 115.0 1006 20 2 Image --
2015 4 27 06 -11.9 114.5 1006 20 2 Image --
2015 4 27 12 -12.7 114.2 1006 20 2 Image --
2015 4 27 18 -13.5 113.7 1006 20 2 Image --
2015 4 28 00 -13.9 112.0 1006 25 2 Image --
2015 4 28 06 -14.1 111.5 1005 25 2 Image --
2015 4 28 12 -14.4 110.8 1003 30 2 Image --
2015 4 28 18 -14.7 110.1 1000 35 3 Image --
2015 4 29 00 -15.1 109.6 997 40 3 Image --
2015 4 29 06 -15.3 109.3 990 50 4 Image --
2015 4 29 12 -15.7 109.2 987 55 4 Image --
2015 4 29 15 -16.0 109.0 984 60 4 Image --
2015 4 29 18 -16.2 109.1 972 75 5 Image --
2015 4 29 21 -16.6 109.3 963.333 85 0 Image --
2015 4 30 00 -16.9 109.4 959 90 5 Image --
2015 4 30 03 -17.2 109.5 954.5 95 0 Image --
2015 4 30 06 -17.7 110.0 950 100 5 Image --
2015 4 30 09 -18.4 110.5 950.667 98.3333 0 Image --
2015 4 30 12 -18.8 110.8 952 95 5 Image --
2015 4 30 18 -19.7 111.8 965 80 5 Image --
2015 5 1 00 -20.5 113.0 977 65 5 Image --
2015 5 1 03 -21.1 113.6 985 55 4 Image --
2015 5 1 06 -21.6 114.2 996 40 3 Image --
2015 5 1 09 -22.0 114.5 998 30 0 Image --
2015 5 1 12 -22.2 114.7 1000 20 2 Image --
< Cyclone 201519 2015 Season Cyclone 201524 >

Help